sensor_id;sensor_type;location;lat;lon;timestamp;P1;durP1;ratioP1;P2;durP2;ratioP2
76176;SDS011;64938;47.696;8.066;2023-03-24T00:01:54;3.93;;;3.27;;
76176;SDS011;64938;47.696;8.066;2023-03-24T00:04:21;4.80;;;3.13;;
76176;SDS011;64938;47.696;8.066;2023-03-24T00:06:47;4.10;;;3.40;;
76176;SDS011;64938;47.696;8.066;2023-03-24T00:09:14;3.77;;;2.77;;
76176;SDS011;64938;47.696;8.066;2023-03-24T00:11:41;3.50;;;3.13;;
76176;SDS011;64938;47.696;8.066;2023-03-24T00:14:07;4.50;;;3.20;;
76176;SDS011;64938;47.696;8.066;2023-03-24T00:16:37;3.40;;;3.03;;
76176;SDS011;64938;47.696;8.066;2023-03-24T00:19:07;3.50;;;2.70;;
76176;SDS011;64938;47.696;8.066;2023-03-24T00:21:35;3.40;;;3.10;;
76176;SDS011;64938;47.696;8.066;2023-03-24T00:24:03;3.87;;;3.43;;
76176;SDS011;64938;47.696;8.066;2023-03-24T00:26:29;3.80;;;2.90;;
76176;SDS011;64938;47.696;8.066;2023-03-24T00:28:56;3.20;;;2.90;;
76176;SDS011;64938;47.696;8.066;2023-03-24T00:31:26;3.23;;;2.80;;
76176;SDS011;64938;47.696;8.066;2023-03-24T00:33:52;3.43;;;2.90;;
76176;SDS011;64938;47.696;8.066;2023-03-24T00:36:18;3.50;;;3.10;;
76176;SDS011;64938;47.696;8.066;2023-03-24T00:38:45;3.93;;;3.07;;
76176;SDS011;64938;47.696;8.066;2023-03-24T00:41:12;3.63;;;3.17;;
76176;SDS011;64938;47.696;8.066;2023-03-24T00:43:38;4.00;;;2.87;;
76176;SDS011;64938;47.696;8.066;2023-03-24T00:46:06;4.10;;;3.10;;
76176;SDS011;64938;47.696;8.066;2023-03-24T00:48:35;4.50;;;3.20;;
76176;SDS011;64938;47.696;8.066;2023-03-24T00:51:03;4.37;;;2.50;;
76176;SDS011;64938;47.696;8.066;2023-03-24T00:53:29;3.67;;;2.90;;
76176;SDS011;64938;47.696;8.066;2023-03-24T00:55:55;3.27;;;2.97;;
76176;SDS011;64938;47.696;8.066;2023-03-24T00:58:23;4.17;;;3.10;;
76176;SDS011;64938;47.696;8.066;2023-03-24T01:00:51;3.70;;;3.00;;
76176;SDS011;64938;47.696;8.066;2023-03-24T01:03:19;3.30;;;3.00;;
76176;SDS011;64938;47.696;8.066;2023-03-24T01:05:50;3.17;;;2.63;;
76176;SDS011;64938;47.696;8.066;2023-03-24T01:08:18;3.10;;;2.50;;
76176;SDS011;64938;47.696;8.066;2023-03-24T01:10:45;3.43;;;2.70;;
76176;SDS011;64938;47.696;8.066;2023-03-24T01:13:18;2.60;;;2.40;;
76176;SDS011;64938;47.696;8.066;2023-03-24T01:15:45;3.87;;;2.97;;
76176;SDS011;64938;47.696;8.066;2023-03-24T01:18:11;3.27;;;2.73;;
76176;SDS011;64938;47.696;8.066;2023-03-24T01:20:38;4.17;;;2.93;;
76176;SDS011;64938;47.696;8.066;2023-03-24T01:23:05;2.63;;;2.43;;
76176;SDS011;64938;47.696;8.066;2023-03-24T01:25:32;4.27;;;2.67;;
76176;SDS011;64938;47.696;8.066;2023-03-24T01:28:00;3.37;;;2.90;;
76176;SDS011;64938;47.696;8.066;2023-03-24T01:30:27;2.53;;;2.33;;
76176;SDS011;64938;47.696;8.066;2023-03-24T01:32:53;4.83;;;2.77;;
76176;SDS011;64938;47.696;8.066;2023-03-24T01:35:20;3.47;;;2.40;;
76176;SDS011;64938;47.696;8.066;2023-03-24T01:37:46;2.67;;;2.47;;
76176;SDS011;64938;47.696;8.066;2023-03-24T01:40:17;2.97;;;2.60;;
76176;SDS011;64938;47.696;8.066;2023-03-24T01:42:44;2.40;;;2.20;;
76176;SDS011;64938;47.696;8.066;2023-03-24T01:48:04;3.13;;;2.83;;
76176;SDS011;64938;47.696;8.066;2023-03-24T01:50:30;3.70;;;2.70;;
76176;SDS011;64938;47.696;8.066;2023-03-24T01:52:57;4.50;;;3.20;;
76176;SDS011;64938;47.696;8.066;2023-03-24T01:55:25;3.53;;;2.90;;
76176;SDS011;64938;47.696;8.066;2023-03-24T01:57:53;3.53;;;2.77;;
76176;SDS011;64938;47.696;8.066;2023-03-24T02:00:21;3.50;;;3.20;;
76176;SDS011;64938;47.696;8.066;2023-03-24T02:02:48;3.17;;;2.87;;
76176;SDS011;64938;47.696;8.066;2023-03-24T02:05:19;3.17;;;2.87;;
76176;SDS011;64938;47.696;8.066;2023-03-24T02:07:49;4.63;;;3.40;;
76176;SDS011;64938;47.696;8.066;2023-03-24T02:10:18;4.20;;;3.60;;
76176;SDS011;64938;47.696;8.066;2023-03-24T02:12:45;6.40;;;3.70;;
76176;SDS011;64938;47.696;8.066;2023-03-24T02:15:11;5.07;;;3.17;;
76176;SDS011;64938;47.696;8.066;2023-03-24T02:23:02;3.90;;;3.60;;
76176;SDS011;64938;47.696;8.066;2023-03-24T02:25:57;4.27;;;3.87;;
76176;SDS011;64938;47.696;8.066;2023-03-24T02:44:44;4.93;;;4.40;;
76176;SDS011;64938;47.696;8.066;2023-03-24T02:50:26;3.77;;;3.47;;
76176;SDS011;64938;47.696;8.066;2023-03-24T03:01:09;3.90;;;3.47;;
76176;SDS011;64938;47.696;8.066;2023-03-24T03:03:39;3.70;;;3.00;;
76176;SDS011;64938;47.696;8.066;2023-03-24T03:06:11;3.57;;;3.10;;
76176;SDS011;64938;47.696;8.066;2023-03-24T03:08:41;3.30;;;3.00;;
76176;SDS011;64938;47.696;8.066;2023-03-24T03:11:11;2.90;;;2.70;;
76176;SDS011;64938;47.696;8.066;2023-03-24T03:13:39;2.73;;;2.47;;
76176;SDS011;64938;47.696;8.066;2023-03-24T03:16:13;2.70;;;2.50;;
76176;SDS011;64938;47.696;8.066;2023-03-24T03:18:43;2.60;;;2.30;;
76176;SDS011;64938;47.696;8.066;2023-03-24T03:21:14;3.50;;;2.60;;
76176;SDS011;64938;47.696;8.066;2023-03-24T03:23:46;3.00;;;2.23;;
76176;SDS011;64938;47.696;8.066;2023-03-24T03:26:14;3.73;;;2.67;;
76176;SDS011;64938;47.696;8.066;2023-03-24T03:28:43;5.70;;;2.53;;
76176;SDS011;64938;47.696;8.066;2023-03-24T03:31:14;3.43;;;2.10;;
76176;SDS011;64938;47.696;8.066;2023-03-24T03:33:45;2.20;;;2.00;;
76176;SDS011;64938;47.696;8.066;2023-03-24T03:36:19;2.87;;;2.10;;
76176;SDS011;64938;47.696;8.066;2023-03-24T03:41:26;2.57;;;2.27;;
76176;SDS011;64938;47.696;8.066;2023-03-24T03:43:52;2.40;;;2.20;;
76176;SDS011;64938;47.696;8.066;2023-03-24T03:46:18;3.97;;;2.63;;
76176;SDS011;64938;47.696;8.066;2023-03-24T03:48:44;2.53;;;2.00;;
76176;SDS011;64938;47.696;8.066;2023-03-24T03:51:10;2.03;;;1.87;;
76176;SDS011;64938;47.696;8.066;2023-03-24T03:53:39;2.00;;;1.90;;
76176;SDS011;64938;47.696;8.066;2023-03-24T03:56:21;3.77;;;2.20;;
76176;SDS011;64938;47.696;8.066;2023-03-24T03:58:48;3.90;;;2.30;;
76176;SDS011;64938;47.696;8.066;2023-03-24T04:01:15;2.73;;;2.30;;
76176;SDS011;64938;47.696;8.066;2023-03-24T04:11:56;3.40;;;2.63;;
76176;SDS011;64938;47.696;8.066;2023-03-24T04:20:11;2.57;;;2.23;;
76176;SDS011;64938;47.696;8.066;2023-03-24T04:25:42;3.37;;;2.53;;
76176;SDS011;64938;47.696;8.066;2023-03-24T04:28:24;3.27;;;2.90;;
76176;SDS011;64938;47.696;8.066;2023-03-24T04:36:21;3.73;;;3.43;;
76176;SDS011;64938;47.696;8.066;2023-03-24T04:38:51;3.97;;;3.57;;
76176;SDS011;64938;47.696;8.066;2023-03-24T04:41:20;4.60;;;3.87;;
76176;SDS011;64938;47.696;8.066;2023-03-24T04:43:46;4.30;;;3.90;;
76176;SDS011;64938;47.696;8.066;2023-03-24T04:46:13;4.33;;;3.90;;
76176;SDS011;64938;47.696;8.066;2023-03-24T04:48:43;4.57;;;4.17;;
76176;SDS011;64938;47.696;8.066;2023-03-24T04:51:10;5.53;;;4.30;;
76176;SDS011;64938;47.696;8.066;2023-03-24T04:53:36;4.00;;;3.70;;
76176;SDS011;64938;47.696;8.066;2023-03-24T04:56:16;4.70;;;4.30;;
76176;SDS011;64938;47.696;8.066;2023-03-24T04:58:46;5.40;;;4.03;;
76176;SDS011;64938;47.696;8.066;2023-03-24T05:01:12;4.60;;;4.20;;
76176;SDS011;64938;47.696;8.066;2023-03-24T05:03:38;5.10;;;4.60;;
76176;SDS011;64938;47.696;8.066;2023-03-24T05:06:04;4.80;;;4.30;;
76176;SDS011;64938;47.696;8.066;2023-03-24T05:08:30;5.87;;;4.37;;
76176;SDS011;64938;47.696;8.066;2023-03-24T05:10:56;5.90;;;4.47;;
76176;SDS011;64938;47.696;8.066;2023-03-24T05:13:22;5.37;;;4.60;;
76176;SDS011;64938;47.696;8.066;2023-03-24T05:15:47;5.30;;;4.80;;
76176;SDS011;64938;47.696;8.066;2023-03-24T05:18:13;5.20;;;4.40;;
76176;SDS011;64938;47.696;8.066;2023-03-24T05:20:39;5.87;;;5.23;;
76176;SDS011;64938;47.696;8.066;2023-03-24T05:23:05;5.87;;;5.03;;
76176;SDS011;64938;47.696;8.066;2023-03-24T05:25:31;5.70;;;5.20;;
76176;SDS011;64938;47.696;8.066;2023-03-24T05:27:57;5.83;;;4.77;;
76176;SDS011;64938;47.696;8.066;2023-03-24T05:30:23;5.37;;;4.87;;
76176;SDS011;64938;47.696;8.066;2023-03-24T05:32:49;4.87;;;4.47;;
76176;SDS011;64938;47.696;8.066;2023-03-24T05:35:14;5.83;;;4.80;;
76176;SDS011;64938;47.696;8.066;2023-03-24T05:37:40;4.70;;;4.30;;
76176;SDS011;64938;47.696;8.066;2023-03-24T05:40:06;4.10;;;3.80;;
76176;SDS011;64938;47.696;8.066;2023-03-24T05:42:32;5.87;;;4.40;;
76176;SDS011;64938;47.696;8.066;2023-03-24T05:44:58;6.60;;;4.53;;
76176;SDS011;64938;47.696;8.066;2023-03-24T05:47:23;4.47;;;4.07;;
76176;SDS011;64938;47.696;8.066;2023-03-24T05:49:49;4.43;;;4.03;;
76176;SDS011;64938;47.696;8.066;2023-03-24T05:52:16;5.03;;;4.53;;
76176;SDS011;64938;47.696;8.066;2023-03-24T05:54:42;4.93;;;4.10;;
76176;SDS011;64938;47.696;8.066;2023-03-24T05:57:11;4.50;;;4.10;;
76176;SDS011;64938;47.696;8.066;2023-03-24T05:59:37;4.40;;;4.00;;
76176;SDS011;64938;47.696;8.066;2023-03-24T06:02:03;4.73;;;4.33;;
76176;SDS011;64938;47.696;8.066;2023-03-24T06:04:29;5.23;;;4.27;;
76176;SDS011;64938;47.696;8.066;2023-03-24T06:06:56;5.23;;;4.40;;
76176;SDS011;64938;47.696;8.066;2023-03-24T06:09:26;4.37;;;3.97;;
76176;SDS011;64938;47.696;8.066;2023-03-24T06:11:54;4.97;;;4.57;;
76176;SDS011;64938;47.696;8.066;2023-03-24T06:14:20;3.63;;;3.33;;
76176;SDS011;64938;47.696;8.066;2023-03-24T06:16:46;4.40;;;3.93;;
76176;SDS011;64938;47.696;8.066;2023-03-24T06:19:14;5.40;;;4.37;;
76176;SDS011;64938;47.696;8.066;2023-03-24T06:21:41;5.80;;;4.30;;
76176;SDS011;64938;47.696;8.066;2023-03-24T06:24:08;4.87;;;4.40;;
76176;SDS011;64938;47.696;8.066;2023-03-24T06:26:39;6.23;;;4.60;;
76176;SDS011;64938;47.696;8.066;2023-03-24T06:29:07;4.67;;;4.27;;
76176;SDS011;64938;47.696;8.066;2023-03-24T06:31:32;4.70;;;4.30;;
76176;SDS011;64938;47.696;8.066;2023-03-24T06:34:00;5.53;;;4.77;;
76176;SDS011;64938;47.696;8.066;2023-03-24T06:36:26;5.10;;;4.60;;
76176;SDS011;64938;47.696;8.066;2023-03-24T06:38:51;5.57;;;5.03;;
76176;SDS011;64938;47.696;8.066;2023-03-24T06:41:17;4.70;;;4.30;;
76176;SDS011;64938;47.696;8.066;2023-03-24T06:43:43;5.30;;;4.90;;
76176;SDS011;64938;47.696;8.066;2023-03-24T06:46:08;5.30;;;4.50;;
76176;SDS011;64938;47.696;8.066;2023-03-24T06:48:35;5.83;;;5.33;;
76176;SDS011;64938;47.696;8.066;2023-03-24T06:51:01;5.67;;;4.73;;
76176;SDS011;64938;47.696;8.066;2023-03-24T06:53:27;5.30;;;4.80;;
76176;SDS011;64938;47.696;8.066;2023-03-24T06:55:52;5.67;;;5.07;;
76176;SDS011;64938;47.696;8.066;2023-03-24T06:58:18;5.20;;;4.70;;
76176;SDS011;64938;47.696;8.066;2023-03-24T07:00:44;5.10;;;4.60;;
76176;SDS011;64938;47.696;8.066;2023-03-24T07:03:11;4.77;;;4.37;;
76176;SDS011;64938;47.696;8.066;2023-03-24T07:05:39;4.50;;;4.10;;
76176;SDS011;64938;47.696;8.066;2023-03-24T07:08:05;4.70;;;4.03;;
76176;SDS011;64938;47.696;8.066;2023-03-24T07:10:31;4.30;;;3.90;;
76176;SDS011;64938;47.696;8.066;2023-03-24T07:12:57;4.57;;;4.17;;
76176;SDS011;64938;47.696;8.066;2023-03-24T07:15:25;4.37;;;3.97;;
76176;SDS011;64938;47.696;8.066;2023-03-24T07:17:51;4.83;;;4.33;;
76176;SDS011;64938;47.696;8.066;2023-03-24T07:20:17;4.67;;;4.20;;
76176;SDS011;64938;47.696;8.066;2023-03-24T07:22:44;6.23;;;4.50;;
76176;SDS011;64938;47.696;8.066;2023-03-24T07:25:10;5.80;;;4.40;;
76176;SDS011;64938;47.696;8.066;2023-03-24T07:27:38;6.80;;;4.90;;
76176;SDS011;64938;47.696;8.066;2023-03-24T07:30:04;5.37;;;4.87;;
76176;SDS011;64938;47.696;8.066;2023-03-24T07:32:36;6.13;;;4.63;;
76176;SDS011;64938;47.696;8.066;2023-03-24T07:35:05;5.20;;;4.80;;
76176;SDS011;64938;47.696;8.066;2023-03-24T07:37:31;5.67;;;5.07;;
76176;SDS011;64938;47.696;8.066;2023-03-24T07:39:57;4.83;;;4.37;;
76176;SDS011;64938;47.696;8.066;2023-03-24T07:42:23;5.87;;;5.07;;
76176;SDS011;64938;47.696;8.066;2023-03-24T07:44:50;5.97;;;5.27;;
76176;SDS011;64938;47.696;8.066;2023-03-24T07:47:16;5.20;;;4.60;;
76176;SDS011;64938;47.696;8.066;2023-03-24T07:49:42;5.60;;;5.10;;
76176;SDS011;64938;47.696;8.066;2023-03-24T07:52:08;5.33;;;4.83;;
76176;SDS011;64938;47.696;8.066;2023-03-24T07:54:33;7.50;;;5.33;;
76176;SDS011;64938;47.696;8.066;2023-03-24T07:56:59;5.80;;;5.23;;
76176;SDS011;64938;47.696;8.066;2023-03-24T07:59:26;5.43;;;5.03;;
76176;SDS011;64938;47.696;8.066;2023-03-24T08:01:51;5.67;;;5.10;;
76176;SDS011;64938;47.696;8.066;2023-03-24T08:04:18;5.50;;;5.00;;
76176;SDS011;64938;47.696;8.066;2023-03-24T08:06:44;6.97;;;4.77;;
76176;SDS011;64938;47.696;8.066;2023-03-24T08:09:10;5.03;;;4.50;;
76176;SDS011;64938;47.696;8.066;2023-03-24T08:11:36;5.00;;;4.60;;
76176;SDS011;64938;47.696;8.066;2023-03-24T08:14:02;5.47;;;4.97;;
76176;SDS011;64938;47.696;8.066;2023-03-24T08:16:28;5.30;;;4.57;;
76176;SDS011;64938;47.696;8.066;2023-03-24T08:18:54;5.10;;;4.60;;
76176;SDS011;64938;47.696;8.066;2023-03-24T08:21:22;5.80;;;5.30;;
76176;SDS011;64938;47.696;8.066;2023-03-24T08:23:48;5.00;;;4.57;;
76176;SDS011;64938;47.696;8.066;2023-03-24T08:26:15;5.43;;;4.60;;
76176;SDS011;64938;47.696;8.066;2023-03-24T08:28:41;6.50;;;4.23;;
76176;SDS011;64938;47.696;8.066;2023-03-24T08:31:07;6.37;;;5.20;;
76176;SDS011;64938;47.696;8.066;2023-03-24T08:33:32;5.40;;;4.90;;
76176;SDS011;64938;47.696;8.066;2023-03-24T08:36:01;5.03;;;4.63;;
76176;SDS011;64938;47.696;8.066;2023-03-24T08:38:27;5.13;;;4.73;;
76176;SDS011;64938;47.696;8.066;2023-03-24T08:40:57;5.87;;;4.97;;
76176;SDS011;64938;47.696;8.066;2023-03-24T08:43:27;6.20;;;5.03;;
76176;SDS011;64938;47.696;8.066;2023-03-24T08:45:54;5.70;;;5.20;;
76176;SDS011;64938;47.696;8.066;2023-03-24T08:48:21;5.47;;;4.67;;
76176;SDS011;64938;47.696;8.066;2023-03-24T08:50:47;4.83;;;4.43;;
76176;SDS011;64938;47.696;8.066;2023-03-24T08:53:13;5.30;;;4.80;;
76176;SDS011;64938;47.696;8.066;2023-03-24T08:55:39;5.33;;;4.57;;
76176;SDS011;64938;47.696;8.066;2023-03-24T08:58:18;4.93;;;4.53;;
76176;SDS011;64938;47.696;8.066;2023-03-24T09:00:47;4.80;;;4.30;;
76176;SDS011;64938;47.696;8.066;2023-03-24T09:03:15;4.10;;;3.70;;
76176;SDS011;64938;47.696;8.066;2023-03-24T09:05:42;4.70;;;4.20;;
76176;SDS011;64938;47.696;8.066;2023-03-24T09:08:08;4.60;;;4.20;;
76176;SDS011;64938;47.696;8.066;2023-03-24T09:10:35;4.80;;;4.30;;
76176;SDS011;64938;47.696;8.066;2023-03-24T09:13:01;5.17;;;4.50;;
76176;SDS011;64938;47.696;8.066;2023-03-24T09:15:28;4.97;;;4.57;;
76176;SDS011;64938;47.696;8.066;2023-03-24T09:17:54;5.33;;;4.83;;
76176;SDS011;64938;47.696;8.066;2023-03-24T09:20:20;4.27;;;3.90;;
76176;SDS011;64938;47.696;8.066;2023-03-24T09:22:45;4.77;;;4.07;;
76176;SDS011;64938;47.696;8.066;2023-03-24T09:25:13;4.03;;;3.63;;
76176;SDS011;64938;47.696;8.066;2023-03-24T09:27:40;3.97;;;3.67;;
76176;SDS011;64938;47.696;8.066;2023-03-24T09:30:07;3.70;;;3.40;;
76176;SDS011;64938;47.696;8.066;2023-03-24T09:32:34;3.80;;;3.50;;
76176;SDS011;64938;47.696;8.066;2023-03-24T09:35:01;3.40;;;3.10;;
76176;SDS011;64938;47.696;8.066;2023-03-24T09:37:30;3.37;;;3.07;;
76176;SDS011;64938;47.696;8.066;2023-03-24T09:39:57;3.50;;;3.20;;
76176;SDS011;64938;47.696;8.066;2023-03-24T09:42:27;4.17;;;2.70;;
76176;SDS011;64938;47.696;8.066;2023-03-24T09:44:56;3.57;;;2.40;;
76176;SDS011;64938;47.696;8.066;2023-03-24T09:47:26;2.93;;;2.40;;
76176;SDS011;64938;47.696;8.066;2023-03-24T09:49:55;2.70;;;2.50;;
76176;SDS011;64938;47.696;8.066;2023-03-24T09:52:27;3.50;;;3.20;;
76176;SDS011;64938;47.696;8.066;2023-03-24T09:54:59;3.80;;;3.40;;
76176;SDS011;64938;47.696;8.066;2023-03-24T09:59:56;3.47;;;3.17;;
76176;SDS011;64938;47.696;8.066;2023-03-24T10:02:22;4.30;;;3.90;;
76176;SDS011;64938;47.696;8.066;2023-03-24T10:04:48;4.40;;;3.50;;
76176;SDS011;64938;47.696;8.066;2023-03-24T10:09:40;3.57;;;3.27;;
76176;SDS011;64938;47.696;8.066;2023-03-24T10:28:15;3.00;;;2.57;;
76176;SDS011;64938;47.696;8.066;2023-03-24T10:30:45;3.83;;;2.97;;
76176;SDS011;64938;47.696;8.066;2023-03-24T10:33:12;3.10;;;2.90;;
76176;SDS011;64938;47.696;8.066;2023-03-24T10:35:40;3.10;;;2.47;;
76176;SDS011;64938;47.696;8.066;2023-03-24T10:38:14;2.23;;;2.03;;
76176;SDS011;64938;47.696;8.066;2023-03-24T10:40:42;2.37;;;2.17;;
76176;SDS011;64938;47.696;8.066;2023-03-24T10:43:10;2.03;;;1.93;;
76176;SDS011;64938;47.696;8.066;2023-03-24T10:45:37;1.43;;;1.30;;
76176;SDS011;64938;47.696;8.066;2023-03-24T10:48:05;1.83;;;1.20;;
76176;SDS011;64938;47.696;8.066;2023-03-24T10:50:33;1.40;;;1.00;;
76176;SDS011;64938;47.696;8.066;2023-03-24T10:53:00;2.17;;;1.10;;
76176;SDS011;64938;47.696;8.066;2023-03-24T10:55:35;2.10;;;1.60;;
76176;SDS011;64938;47.696;8.066;2023-03-24T10:58:05;2.93;;;1.30;;
76176;SDS011;64938;47.696;8.066;2023-03-24T11:00:42;1.10;;;1.00;;
76176;SDS011;64938;47.696;8.066;2023-03-24T11:03:12;4.40;;;1.00;;
76176;SDS011;64938;47.696;8.066;2023-03-24T11:05:42;1.03;;;0.90;;
76176;SDS011;64938;47.696;8.066;2023-03-24T11:08:11;0.90;;;0.80;;
76176;SDS011;64938;47.696;8.066;2023-03-24T11:10:39;1.50;;;0.70;;
76176;SDS011;64938;47.696;8.066;2023-03-24T11:13:13;0.70;;;0.70;;
76176;SDS011;64938;47.696;8.066;2023-03-24T11:15:51;1.10;;;0.90;;
76176;SDS011;64938;47.696;8.066;2023-03-24T11:18:29;2.07;;;1.00;;
76176;SDS011;64938;47.696;8.066;2023-03-24T11:20:57;0.87;;;0.77;;
76176;SDS011;64938;47.696;8.066;2023-03-24T11:23:33;1.17;;;0.80;;
76176;SDS011;64938;47.696;8.066;2023-03-24T11:28:57;2.70;;;0.80;;
76176;SDS011;64938;47.696;8.066;2023-03-24T11:33:56;1.20;;;0.90;;
76176;SDS011;64938;47.696;8.066;2023-03-24T11:39:06;1.03;;;0.97;;
76176;SDS011;64938;47.696;8.066;2023-03-24T11:41:43;0.97;;;0.90;;
76176;SDS011;64938;47.696;8.066;2023-03-24T11:44:17;0.90;;;0.83;;
76176;SDS011;64938;47.696;8.066;2023-03-24T11:46:49;0.80;;;0.80;;
76176;SDS011;64938;47.696;8.066;2023-03-24T11:49:26;1.47;;;0.80;;
76176;SDS011;64938;47.696;8.066;2023-03-24T11:51:54;1.20;;;1.10;;
76176;SDS011;64938;47.696;8.066;2023-03-24T11:54:26;1.37;;;0.90;;
76176;SDS011;64938;47.696;8.066;2023-03-24T11:56:56;1.23;;;0.90;;
76176;SDS011;64938;47.696;8.066;2023-03-24T12:01:52;0.93;;;0.90;;
76176;SDS011;64938;47.696;8.066;2023-03-24T12:09:57;1.20;;;1.10;;
76176;SDS011;64938;47.696;8.066;2023-03-24T12:12:45;1.40;;;1.30;;
76176;SDS011;64938;47.696;8.066;2023-03-24T12:26:26;1.50;;;1.40;;
76176;SDS011;64938;47.696;8.066;2023-03-24T12:31:53;1.33;;;1.23;;
76176;SDS011;64938;47.696;8.066;2023-03-24T12:39:43;1.30;;;1.10;;
76176;SDS011;64938;47.696;8.066;2023-03-24T12:42:19;1.37;;;1.27;;
76176;SDS011;64938;47.696;8.066;2023-03-24T12:44:56;3.00;;;1.47;;
76176;SDS011;64938;47.696;8.066;2023-03-24T12:50:19;1.37;;;1.10;;
76176;SDS011;64938;47.696;8.066;2023-03-24T12:58:37;1.17;;;0.90;;
76176;SDS011;64938;47.696;8.066;2023-03-24T13:03:57;1.20;;;1.10;;
76176;SDS011;64938;47.696;8.066;2023-03-24T13:06:28;1.70;;;1.10;;
76176;SDS011;64938;47.696;8.066;2023-03-24T13:09:06;1.50;;;1.10;;
76176;SDS011;64938;47.696;8.066;2023-03-24T13:11:57;1.40;;;1.30;;
76176;SDS011;64938;47.696;8.066;2023-03-24T13:14:29;1.30;;;1.20;;
76176;SDS011;64938;47.696;8.066;2023-03-24T13:17:00;1.20;;;1.00;;
76176;SDS011;64938;47.696;8.066;2023-03-24T13:19:29;1.83;;;1.03;;
76176;SDS011;64938;47.696;8.066;2023-03-24T13:21:55;1.63;;;1.20;;
76176;SDS011;64938;47.696;8.066;2023-03-24T13:24:22;1.10;;;1.00;;
76176;SDS011;64938;47.696;8.066;2023-03-24T13:37:18;2.80;;;1.20;;
76176;SDS011;64938;47.696;8.066;2023-03-24T13:40:06;1.83;;;1.30;;
76176;SDS011;64938;47.696;8.066;2023-03-24T13:42:36;1.97;;;1.17;;
76176;SDS011;64938;47.696;8.066;2023-03-24T13:45:17;1.20;;;1.10;;
76176;SDS011;64938;47.696;8.066;2023-03-24T13:50:33;2.60;;;1.60;;
76176;SDS011;64938;47.696;8.066;2023-03-24T13:53:04;1.30;;;1.20;;
76176;SDS011;64938;47.696;8.066;2023-03-24T13:55:33;1.23;;;1.10;;
76176;SDS011;64938;47.696;8.066;2023-03-24T13:58:05;1.30;;;1.20;;
76176;SDS011;64938;47.696;8.066;2023-03-24T14:03:39;1.30;;;1.20;;
76176;SDS011;64938;47.696;8.066;2023-03-24T14:06:07;2.30;;;1.27;;
76176;SDS011;64938;47.696;8.066;2023-03-24T14:14:06;1.50;;;1.40;;
76176;SDS011;64938;47.696;8.066;2023-03-24T14:16:41;2.27;;;1.40;;
76176;SDS011;64938;47.696;8.066;2023-03-24T14:19:17;1.33;;;1.23;;
76176;SDS011;64938;47.696;8.066;2023-03-24T14:21:49;2.07;;;1.30;;
76176;SDS011;64938;47.696;8.066;2023-03-24T14:24:25;1.57;;;1.30;;
76176;SDS011;64938;47.696;8.066;2023-03-24T14:26:53;1.30;;;1.20;;
76176;SDS011;64938;47.696;8.066;2023-03-24T14:29:39;1.60;;;1.37;;
76176;SDS011;64938;47.696;8.066;2023-03-24T14:32:11;1.70;;;1.60;;
76176;SDS011;64938;47.696;8.066;2023-03-24T14:34:48;1.30;;;1.20;;
76176;SDS011;64938;47.696;8.066;2023-03-24T14:37:23;2.20;;;1.60;;
76176;SDS011;64938;47.696;8.066;2023-03-24T14:39:50;1.40;;;1.30;;
76176;SDS011;64938;47.696;8.066;2023-03-24T14:44:59;1.77;;;1.30;;
76176;SDS011;64938;47.696;8.066;2023-03-24T14:47:29;2.23;;;1.40;;
76176;SDS011;64938;47.696;8.066;2023-03-24T14:49:58;1.43;;;1.27;;
76176;SDS011;64938;47.696;8.066;2023-03-24T14:52:46;1.70;;;1.30;;
76176;SDS011;64938;47.696;8.066;2023-03-24T14:55:15;2.10;;;1.30;;
76176;SDS011;64938;47.696;8.066;2023-03-24T14:57:44;1.90;;;1.47;;
76176;SDS011;64938;47.696;8.066;2023-03-24T15:00:16;1.40;;;1.30;;
76176;SDS011;64938;47.696;8.066;2023-03-24T15:02:44;3.17;;;1.20;;
76176;SDS011;64938;47.696;8.066;2023-03-24T15:07:41;1.83;;;1.60;;
76176;SDS011;64938;47.696;8.066;2023-03-24T15:10:15;1.63;;;1.37;;
76176;SDS011;64938;47.696;8.066;2023-03-24T15:12:45;1.23;;;1.13;;
76176;SDS011;64938;47.696;8.066;2023-03-24T15:15:14;2.23;;;1.40;;
76176;SDS011;64938;47.696;8.066;2023-03-24T15:17:43;2.90;;;1.30;;
76176;SDS011;64938;47.696;8.066;2023-03-24T15:20:27;1.30;;;1.20;;
76176;SDS011;64938;47.696;8.066;2023-03-24T15:22:54;2.40;;;1.20;;
76176;SDS011;64938;47.696;8.066;2023-03-24T15:25:24;1.20;;;1.07;;
76176;SDS011;64938;47.696;8.066;2023-03-24T15:27:54;3.00;;;1.40;;
76176;SDS011;64938;47.696;8.066;2023-03-24T15:30:20;1.27;;;1.13;;
76176;SDS011;64938;47.696;8.066;2023-03-24T15:32:46;1.90;;;1.70;;
76176;SDS011;64938;47.696;8.066;2023-03-24T15:35:14;2.73;;;1.70;;
76176;SDS011;64938;47.696;8.066;2023-03-24T15:37:43;1.57;;;1.47;;
76176;SDS011;64938;47.696;8.066;2023-03-24T15:40:29;2.10;;;1.83;;
76176;SDS011;64938;47.696;8.066;2023-03-24T15:42:57;1.47;;;1.37;;
76176;SDS011;64938;47.696;8.066;2023-03-24T15:45:26;2.77;;;1.50;;
76176;SDS011;64938;47.696;8.066;2023-03-24T15:47:53;1.50;;;1.30;;
76176;SDS011;64938;47.696;8.066;2023-03-24T15:50:28;1.87;;;1.40;;
76176;SDS011;64938;47.696;8.066;2023-03-24T15:52:59;1.60;;;1.50;;
76176;SDS011;64938;47.696;8.066;2023-03-24T15:57:56;2.00;;;1.47;;
76176;SDS011;64938;47.696;8.066;2023-03-24T16:00:26;1.90;;;1.40;;
76176;SDS011;64938;47.696;8.066;2023-03-24T16:02:55;1.73;;;1.50;;
76176;SDS011;64938;47.696;8.066;2023-03-24T16:07:58;1.70;;;1.37;;
76176;SDS011;64938;47.696;8.066;2023-03-24T16:10:27;3.13;;;1.50;;
76176;SDS011;64938;47.696;8.066;2023-03-24T16:13:10;2.03;;;1.60;;
76176;SDS011;64938;47.696;8.066;2023-03-24T16:15:39;1.87;;;1.67;;
76176;SDS011;64938;47.696;8.066;2023-03-24T16:18:08;2.10;;;1.90;;
76176;SDS011;64938;47.696;8.066;2023-03-24T16:20:38;2.50;;;1.80;;
76176;SDS011;64938;47.696;8.066;2023-03-24T16:23:04;2.37;;;2.00;;
76176;SDS011;64938;47.696;8.066;2023-03-24T16:25:29;1.80;;;1.70;;
76176;SDS011;64938;47.696;8.066;2023-03-24T16:28:01;2.50;;;1.77;;
76176;SDS011;64938;47.696;8.066;2023-03-24T16:30:27;1.93;;;1.83;;
76176;SDS011;64938;47.696;8.066;2023-03-24T16:32:55;1.97;;;1.87;;
76176;SDS011;64938;47.696;8.066;2023-03-24T16:35:21;2.00;;;1.70;;
76176;SDS011;64938;47.696;8.066;2023-03-24T16:37:47;5.73;;;1.90;;
76176;SDS011;64938;47.696;8.066;2023-03-24T16:40:18;1.63;;;1.53;;
76176;SDS011;64938;47.696;8.066;2023-03-24T16:42:47;1.80;;;1.70;;
76176;SDS011;64938;47.696;8.066;2023-03-24T16:45:13;1.90;;;1.73;;
76176;SDS011;64938;47.696;8.066;2023-03-24T16:47:39;1.70;;;1.60;;
76176;SDS011;64938;47.696;8.066;2023-03-24T16:53:09;1.80;;;1.60;;
76176;SDS011;64938;47.696;8.066;2023-03-24T16:55:35;2.10;;;1.80;;
76176;SDS011;64938;47.696;8.066;2023-03-24T16:58:03;2.20;;;1.90;;
76176;SDS011;64938;47.696;8.066;2023-03-24T17:00:33;1.90;;;1.43;;
76176;SDS011;64938;47.696;8.066;2023-03-24T17:03:01;2.30;;;1.73;;
76176;SDS011;64938;47.696;8.066;2023-03-24T17:05:29;1.53;;;1.40;;
76176;SDS011;64938;47.696;8.066;2023-03-24T17:07:59;2.10;;;1.60;;
76176;SDS011;64938;47.696;8.066;2023-03-24T17:10:25;5.07;;;1.57;;
76176;SDS011;64938;47.696;8.066;2023-03-24T17:12:53;1.53;;;1.27;;
76176;SDS011;64938;47.696;8.066;2023-03-24T17:15:22;2.70;;;1.40;;
76176;SDS011;64938;47.696;8.066;2023-03-24T17:17:49;2.40;;;1.50;;
76176;SDS011;64938;47.696;8.066;2023-03-24T17:20:15;1.37;;;1.27;;
76176;SDS011;64938;47.696;8.066;2023-03-24T17:22:41;2.63;;;2.10;;
76176;SDS011;64938;47.696;8.066;2023-03-24T17:25:09;3.70;;;1.70;;
76176;SDS011;64938;47.696;8.066;2023-03-24T17:27:36;2.20;;;1.80;;
76176;SDS011;64938;47.696;8.066;2023-03-24T17:30:02;2.90;;;2.10;;
76176;SDS011;64938;47.696;8.066;2023-03-24T17:32:30;1.80;;;1.70;;
76176;SDS011;64938;47.696;8.066;2023-03-24T17:34:57;2.30;;;2.00;;
76176;SDS011;64938;47.696;8.066;2023-03-24T17:37:24;2.30;;;1.80;;
76176;SDS011;64938;47.696;8.066;2023-03-24T17:39:52;2.33;;;2.00;;
76176;SDS011;64938;47.696;8.066;2023-03-24T17:42:20;2.37;;;1.90;;